createdAt,value
2023-03-17T00:00:21.995Z,20.00
2023-03-17T00:03:25.622Z,20.40
2023-03-17T00:05:54.688Z,21.38
2023-03-17T00:08:28.575Z,20.90
2023-03-17T00:10:56.207Z,21.77
2023-03-17T00:13:23.945Z,23.13
2023-03-17T00:16:00.958Z,23.63
2023-03-17T00:18:31.483Z,22.63
2023-03-17T00:20:58.759Z,22.52
2023-03-17T00:23:26.476Z,21.83
2023-03-17T00:25:54.174Z,22.73
2023-03-17T00:28:27.193Z,23.60
2023-03-17T00:30:59.074Z,22.25
2023-03-17T00:33:32.916Z,21.30
2023-03-17T00:36:01.216Z,21.02
2023-03-17T00:38:29.580Z,20.75
2023-03-17T00:40:58.672Z,19.52
2023-03-17T00:43:26.184Z,19.83
2023-03-17T00:45:53.267Z,20.63
2023-03-17T00:48:21.993Z,19.55
2023-03-17T00:50:50.944Z,19.75
2023-03-17T00:53:21.580Z,19.55
2023-03-17T00:55:49.897Z,19.02
2023-03-17T00:58:33.946Z,19.40
2023-03-17T01:01:01.527Z,19.60
2023-03-17T01:03:29.057Z,20.67
2023-03-17T01:05:57.783Z,20.27
2023-03-17T01:08:25.986Z,20.65
2023-03-17T01:10:53.135Z,21.33
2023-03-17T01:13:20.352Z,22.17
2023-03-17T01:15:50.502Z,20.25
2023-03-17T01:18:22.728Z,19.67
2023-03-17T01:20:50.856Z,19.63
2023-03-17T01:23:18.120Z,20.30
2023-03-17T01:25:45.514Z,18.63
2023-03-17T01:28:18.640Z,19.95
2023-03-17T01:30:47.059Z,19.40
2023-03-17T01:33:14.838Z,19.55
2023-03-17T01:35:45.592Z,19.25
2023-03-17T01:38:14.864Z,18.30
2023-03-17T01:40:51.929Z,18.15
2023-03-17T01:43:27.696Z,17.27
2023-03-17T01:46:29.970Z,17.85
2023-03-17T01:49:38.118Z,14.70
2023-03-17T01:52:07.557Z,17.88
2023-03-17T01:54:45.061Z,18.48
2023-03-17T01:57:38.029Z,17.17
2023-03-17T02:00:17.888Z,17.65
2023-03-17T02:02:52.349Z,17.17
2023-03-17T02:05:29.708Z,17.35
2023-03-17T02:07:57.082Z,16.25
2023-03-17T02:10:30.281Z,16.58
2023-03-17T02:13:03.510Z,17.40
2023-03-17T02:15:40.341Z,16.27
2023-03-17T02:18:08.875Z,16.77
2023-03-17T02:20:37.420Z,16.65
2023-03-17T02:23:07.138Z,16.35
2023-03-17T02:25:36.623Z,16.92
2023-03-17T02:28:18.992Z,17.55
2023-03-17T02:30:46.233Z,19.45
2023-03-17T02:33:15.245Z,18.25
2023-03-17T02:35:43.084Z,19.35
2023-03-17T02:38:10.753Z,19.65
2023-03-17T02:40:38.304Z,19.85
2023-03-17T02:43:05.683Z,21.13
2023-03-17T02:45:32.912Z,21.75
2023-03-17T02:48:00.980Z,21.77
2023-03-17T02:50:29.456Z,22.48
2023-03-17T02:52:56.929Z,22.50
2023-03-17T02:55:24.308Z,23.45
2023-03-17T02:57:51.515Z,22.85
2023-03-17T03:00:21.475Z,24.30
2023-03-17T03:02:48.421Z,24.52
2023-03-17T03:05:16.296Z,23.02
2023-03-17T03:07:43.320Z,23.75
2023-03-17T03:10:11.293Z,24.33
2023-03-17T03:12:38.300Z,22.73
2023-03-17T03:15:06.937Z,23.33
2023-03-17T03:17:33.870Z,22.13
2023-03-17T03:20:01.310Z,21.67
2023-03-17T03:22:28.228Z,23.10
2023-03-17T03:24:55.458Z,23.27
2023-03-17T03:27:22.606Z,22.85
2023-03-17T03:29:49.887Z,24.80
2023-03-17T03:32:17.016Z,23.27
2023-03-17T03:34:44.302Z,23.40
2023-03-17T03:37:11.561Z,23.75
2023-03-17T03:39:39.068Z,24.50
2023-03-17T03:42:07.077Z,27.83
2023-03-17T03:44:34.394Z,40.90
2023-03-17T03:47:01.708Z,36.53
2023-03-17T03:49:29.096Z,31.15
2023-03-17T03:51:56.193Z,29.92
2023-03-17T03:54:23.724Z,26.77
2023-03-17T03:56:50.724Z,26.05
2023-03-17T03:59:17.942Z,24.60
2023-03-17T04:01:45.560Z,24.08
2023-03-17T04:04:12.876Z,23.67
2023-03-17T04:06:39.909Z,22.35
2023-03-17T04:09:07.481Z,20.35
2023-03-17T04:11:34.440Z,20.35
2023-03-17T04:14:02.027Z,20.70
2023-03-17T04:16:29.183Z,20.77
2023-03-17T04:18:56.520Z,20.05
2023-03-17T04:21:23.472Z,18.17
2023-03-17T04:23:51.186Z,18.05
2023-03-17T04:26:18.990Z,18.02
2023-03-17T04:28:46.504Z,17.08
2023-03-17T04:31:13.636Z,16.85
2023-03-17T04:33:41.062Z,16.67
2023-03-17T04:36:14.967Z,17.02
2023-03-17T04:38:42.680Z,16.10
2023-03-17T04:41:09.612Z,16.73
2023-03-17T04:43:36.952Z,17.60
2023-03-17T04:46:04.301Z,16.17
2023-03-17T04:48:32.056Z,16.75
2023-03-17T04:50:59.226Z,17.33
2023-03-17T04:53:27.116Z,15.88
2023-03-17T04:55:54.171Z,15.57
2023-03-17T04:58:30.405Z,15.43
2023-03-17T05:00:58.968Z,14.23
2023-03-17T05:03:28.285Z,14.70
2023-03-17T05:05:57.708Z,15.95
2023-03-17T05:08:26.317Z,16.08
2023-03-17T05:10:53.243Z,14.23
2023-03-17T05:13:20.806Z,15.20
2023-03-17T05:15:49.480Z,14.95
2023-03-17T05:18:18.141Z,15.10
2023-03-17T05:20:45.435Z,14.63
2023-03-17T05:23:13.070Z,15.77
2023-03-17T05:25:41.550Z,14.20
2023-03-17T05:28:10.036Z,14.85
2023-03-17T05:30:37.135Z,14.27
2023-03-17T05:33:05.112Z,14.30
2023-03-17T05:35:32.311Z,14.70
2023-03-17T05:37:59.518Z,13.68
2023-03-17T05:40:26.566Z,14.60
2023-03-17T05:42:53.784Z,13.88
2023-03-17T05:45:21.013Z,13.40
2023-03-17T05:47:48.363Z,13.63
2023-03-17T05:50:15.595Z,13.70
2023-03-17T05:52:43.339Z,13.27
2023-03-17T05:55:10.671Z,13.90
2023-03-17T05:57:37.948Z,14.95
2023-03-17T06:00:05.647Z,14.88
2023-03-17T06:02:33.137Z,14.32
2023-03-17T06:05:00.237Z,14.23
2023-03-17T06:07:38.030Z,13.93
2023-03-17T06:10:16.009Z,13.38
2023-03-17T06:12:43.271Z,14.70
2023-03-17T06:15:10.739Z,14.38
2023-03-17T06:17:38.387Z,14.02
2023-03-17T06:20:06.382Z,14.55
2023-03-17T06:22:33.556Z,16.20
2023-03-17T06:25:01.063Z,16.38
2023-03-17T06:27:28.393Z,15.40
2023-03-17T06:29:55.323Z,15.50
2023-03-17T06:32:22.452Z,16.05
2023-03-17T06:34:49.562Z,18.45
2023-03-17T06:37:16.890Z,16.83
2023-03-17T06:39:45.091Z,16.95
2023-03-17T06:42:12.636Z,18.00
2023-03-17T06:44:39.845Z,17.27
2023-03-17T06:47:07.393Z,16.48
2023-03-17T06:49:34.446Z,18.67
2023-03-17T06:52:02.357Z,16.50
2023-03-17T06:54:29.714Z,17.13
2023-03-17T06:56:57.119Z,17.25
2023-03-17T06:59:24.903Z,19.27
2023-03-17T07:01:52.222Z,18.92
2023-03-17T07:04:19.710Z,18.00
2023-03-17T07:06:46.908Z,18.90
2023-03-17T07:09:15.424Z,20.38
2023-03-17T07:11:42.833Z,17.10
2023-03-17T07:14:09.869Z,17.10
2023-03-17T07:16:37.580Z,17.65
2023-03-17T07:19:04.893Z,17.27
2023-03-17T07:21:32.103Z,16.90
2023-03-17T07:23:59.096Z,17.17
2023-03-17T07:26:26.420Z,16.33
2023-03-17T07:28:53.444Z,16.38
2023-03-17T07:31:20.693Z,16.92
2023-03-17T07:33:47.741Z,16.67
2023-03-17T07:36:15.691Z,17.48
2023-03-17T07:38:43.706Z,15.82
2023-03-17T07:41:10.934Z,16.25
2023-03-17T07:43:38.384Z,15.95
2023-03-17T07:46:06.532Z,13.38
2023-03-17T07:48:34.530Z,13.70
2023-03-17T07:51:02.050Z,12.70
2023-03-17T07:53:29.691Z,14.57
2023-03-17T07:55:57.184Z,12.90
2023-03-17T07:58:24.161Z,13.07
2023-03-17T08:00:51.734Z,11.88
2023-03-17T08:03:19.386Z,12.23
2023-03-17T08:05:55.273Z,11.45
2023-03-17T08:08:24.369Z,11.40
2023-03-17T08:10:52.110Z,11.30
2023-03-17T08:13:19.788Z,10.98
2023-03-17T08:15:47.066Z,11.70
2023-03-17T08:18:14.306Z,10.70
2023-03-17T08:20:42.245Z,10.88
2023-03-17T08:23:09.314Z,11.50
2023-03-17T08:25:37.001Z,11.23
2023-03-17T08:28:04.537Z,10.55
2023-03-17T08:30:33.763Z,10.02
2023-03-17T08:33:00.935Z,9.88
2023-03-17T08:35:28.470Z,10.35
2023-03-17T08:37:56.272Z,8.98
2023-03-17T08:40:23.714Z,10.18
2023-03-17T08:42:51.117Z,9.65
2023-03-17T08:45:18.892Z,9.25
2023-03-17T08:47:47.666Z,9.75
2023-03-17T08:50:23.060Z,9.98
2023-03-17T08:52:52.165Z,10.48
2023-03-17T08:55:19.989Z,11.43
2023-03-17T08:57:47.197Z,10.60
2023-03-17T09:00:20.249Z,9.60
2023-03-17T09:02:48.673Z,9.30
2023-03-17T09:05:17.817Z,8.95
2023-03-17T09:07:45.287Z,9.13
2023-03-17T09:10:14.749Z,9.25
2023-03-17T09:12:42.740Z,8.80
2023-03-17T09:15:12.242Z,8.32
2023-03-17T09:17:39.641Z,8.23
2023-03-17T09:20:07.708Z,7.97
2023-03-17T09:22:34.695Z,7.80
2023-03-17T09:25:02.096Z,7.07
2023-03-17T09:27:29.169Z,6.22
2023-03-17T09:29:56.375Z,6.22
2023-03-17T09:32:23.435Z,5.28
2023-03-17T09:34:51.691Z,5.18
2023-03-17T09:37:18.711Z,5.18
2023-03-17T09:39:46.305Z,4.68
2023-03-17T09:42:49.569Z,4.65
2023-03-17T09:45:36.585Z,4.50
2023-03-17T09:48:44.396Z,4.07
2023-03-17T09:51:18.447Z,3.25
2023-03-17T09:54:02.408Z,3.42
2023-03-17T09:56:34.205Z,3.47
2023-03-17T09:59:22.508Z,3.00
2023-03-17T10:01:50.636Z,3.00
2023-03-17T10:04:19.016Z,2.90
2023-03-17T10:06:47.983Z,2.38
2023-03-17T10:09:41.880Z,2.80
2023-03-17T10:12:30.712Z,2.58
2023-03-17T10:15:01.548Z,2.05
2023-03-17T10:17:36.608Z,2.40
2023-03-17T10:20:16.103Z,2.83
2023-03-17T10:22:49.203Z,2.70
2023-03-17T10:25:22.355Z,2.38
2023-03-17T10:28:23.093Z,2.33
2023-03-17T10:30:50.409Z,3.00
2023-03-17T10:33:17.779Z,2.75
2023-03-17T10:35:45.294Z,3.30
2023-03-17T10:38:23.339Z,2.65
2023-03-17T10:41:06.104Z,3.22
2023-03-17T10:43:50.811Z,2.72
2023-03-17T10:46:25.662Z,2.50
2023-03-17T10:49:16.901Z,2.47
2023-03-17T10:51:47.052Z,2.20
2023-03-17T10:54:21.012Z,2.35
2023-03-17T10:56:56.871Z,2.42
2023-03-17T10:59:32.997Z,2.10
2023-03-17T11:02:13.427Z,2.90
2023-03-17T11:04:43.531Z,2.78
2023-03-17T11:07:20.272Z,2.28
2023-03-17T11:09:52.489Z,2.40
2023-03-17T11:12:39.351Z,2.92
2023-03-17T11:15:18.289Z,2.15
2023-03-17T11:18:07.643Z,2.13
2023-03-17T11:20:56.676Z,2.08
2023-03-17T11:23:51.979Z,2.40
2023-03-17T11:26:40.473Z,2.40
2023-03-17T11:29:30.086Z,2.30
2023-03-17T11:32:16.138Z,2.63
2023-03-17T11:35:34.181Z,2.80
2023-03-17T11:38:36.200Z,2.75
2023-03-17T11:41:21.014Z,2.60
2023-03-17T11:44:14.071Z,2.75
2023-03-17T11:49:45.130Z,3.38
2023-03-17T11:55:24.975Z,2.80
2023-03-17T11:58:00.436Z,2.60
2023-03-17T12:00:36.552Z,2.20
2023-03-17T12:03:53.119Z,2.13
2023-03-17T12:06:32.005Z,2.35
2023-03-17T12:09:08.554Z,2.58
2023-03-17T12:11:44.594Z,2.67
2023-03-17T12:14:32.494Z,2.63
2023-03-17T12:17:34.273Z,2.38
2023-03-17T12:20:25.850Z,2.35
2023-03-17T12:23:10.219Z,2.30
2023-03-17T12:25:57.775Z,2.30
2023-03-17T12:28:32.899Z,2.80
2023-03-17T12:31:12.781Z,2.25
2023-03-17T12:34:20.860Z,2.40
2023-03-17T12:36:49.265Z,2.20
2023-03-17T12:39:27.157Z,2.40
2023-03-17T12:42:27.091Z,2.20
2023-03-17T12:45:25.077Z,2.00
2023-03-17T12:48:43.668Z,2.33
2023-03-17T12:51:29.897Z,2.25
2023-03-17T12:53:59.478Z,2.20
2023-03-17T12:56:36.748Z,2.30
2023-03-17T12:59:16.754Z,2.85
2023-03-17T13:02:17.604Z,2.22
2023-03-17T13:05:01.020Z,2.15
2023-03-17T13:07:52.928Z,2.08
2023-03-17T13:10:44.760Z,2.05
2023-03-17T13:13:36.412Z,2.28
2023-03-17T13:16:06.326Z,2.40
2023-03-17T13:18:36.630Z,2.22
2023-03-17T13:21:04.080Z,2.10
2023-03-17T13:23:56.521Z,1.92
2023-03-17T13:26:59.332Z,2.35
2023-03-17T13:29:32.803Z,1.90
2023-03-17T13:32:19.905Z,1.80
2023-03-17T13:35:42.667Z,1.80
2023-03-17T13:38:35.144Z,2.30
2023-03-17T13:44:32.436Z,2.13
2023-03-17T13:47:22.863Z,2.28
2023-03-17T13:49:59.280Z,1.88
2023-03-17T13:52:37.876Z,2.30
2023-03-17T13:55:24.818Z,2.03
2023-03-17T13:58:22.456Z,1.90
2023-03-17T14:01:00.226Z,2.05
2023-03-17T14:03:42.540Z,2.78
2023-03-17T14:06:14.234Z,2.63
2023-03-17T14:09:27.974Z,2.30
2023-03-17T14:11:59.611Z,2.33
2023-03-17T14:14:51.043Z,2.10
2023-03-17T14:17:41.459Z,3.17
2023-03-17T14:20:18.490Z,2.63
2023-03-17T14:22:53.373Z,2.30
2023-03-17T14:25:24.858Z,2.40
2023-03-17T14:27:56.879Z,3.20
2023-03-17T14:30:31.648Z,3.60
2023-03-17T14:33:11.960Z,2.53
2023-03-17T14:35:43.204Z,3.40
2023-03-17T14:38:23.049Z,2.88
2023-03-17T14:41:06.556Z,2.80
2023-03-17T14:43:36.172Z,3.05
2023-03-17T14:46:14.625Z,3.50
2023-03-17T14:48:47.887Z,3.70
2023-03-17T14:51:36.537Z,2.78
2023-03-17T14:54:14.353Z,3.33
2023-03-17T14:56:48.060Z,3.50
2023-03-17T14:59:26.780Z,4.00
2023-03-17T15:02:01.680Z,3.88
2023-03-17T15:04:34.176Z,3.90
2023-03-17T15:07:06.633Z,3.55
2023-03-17T15:09:33.648Z,3.40
2023-03-17T15:12:23.700Z,4.03
2023-03-17T15:14:54.560Z,4.07
2023-03-17T15:17:29.255Z,4.15
2023-03-17T15:20:01.912Z,3.80
2023-03-17T15:22:35.195Z,3.53
2023-03-17T15:25:18.038Z,3.10
2023-03-17T15:27:47.036Z,3.40
2023-03-17T15:30:15.428Z,3.10
2023-03-17T15:32:43.169Z,3.00
2023-03-17T15:35:14.276Z,2.90
2023-03-17T15:37:42.924Z,3.40
2023-03-17T15:40:11.027Z,3.17
2023-03-17T15:42:39.713Z,3.05
2023-03-17T15:45:07.773Z,3.05
2023-03-17T15:47:39.807Z,3.58
2023-03-17T15:50:29.109Z,3.30
2023-03-17T15:52:57.079Z,3.25
2023-03-17T15:55:30.547Z,3.78
2023-03-17T15:57:59.133Z,3.05
2023-03-17T16:00:29.865Z,3.90
2023-03-17T16:03:04.153Z,3.90
2023-03-17T16:05:35.908Z,3.95
2023-03-17T16:08:03.186Z,3.53
2023-03-17T16:10:33.159Z,3.78
2023-03-17T16:13:00.707Z,4.05
2023-03-17T16:15:37.191Z,3.30
2023-03-17T16:18:10.204Z,3.50
2023-03-17T16:20:44.533Z,3.80
2023-03-17T16:23:18.517Z,3.60
2023-03-17T16:25:46.765Z,3.42
2023-03-17T16:28:29.912Z,4.00
2023-03-17T16:33:40.384Z,5.72
2023-03-17T16:36:13.145Z,14.18
2023-03-17T16:38:40.866Z,13.85
2023-03-17T16:41:16.981Z,12.50
2023-03-17T16:43:50.970Z,11.60
2023-03-17T16:46:20.609Z,15.32
2023-03-17T16:48:50.070Z,16.02
2023-03-17T16:51:17.828Z,30.13
2023-03-17T16:53:46.167Z,19.30
2023-03-17T16:56:19.210Z,8.50
2023-03-17T16:58:47.740Z,6.90
2023-03-17T17:01:25.701Z,6.07
2023-03-17T17:03:54.032Z,6.38
2023-03-17T17:06:23.668Z,8.63
2023-03-17T17:08:51.849Z,7.18
2023-03-17T17:11:20.317Z,7.43
2023-03-17T17:13:49.260Z,6.82
2023-03-17T17:16:27.404Z,7.18
2023-03-17T17:18:55.572Z,6.15
2023-03-17T17:21:22.744Z,7.13
2023-03-17T17:23:52.676Z,7.95
2023-03-17T17:26:21.115Z,18.17
2023-03-17T17:28:48.857Z,20.77
2023-03-17T17:31:16.021Z,22.08
2023-03-17T17:33:43.322Z,18.92
2023-03-17T17:36:16.939Z,14.10
2023-03-17T17:38:44.951Z,11.18
2023-03-17T17:41:13.043Z,9.90
2023-03-17T17:43:40.998Z,10.23
2023-03-17T17:46:16.044Z,9.93
2023-03-17T17:48:43.878Z,9.43
2023-03-17T17:51:10.847Z,8.88
2023-03-17T17:53:38.087Z,8.63
2023-03-17T17:56:05.630Z,8.73
2023-03-17T17:58:32.916Z,8.70
2023-03-17T18:01:00.342Z,7.72
2023-03-17T18:03:28.108Z,8.63
2023-03-17T18:05:58.087Z,8.30
2023-03-17T18:08:25.888Z,10.13
2023-03-17T18:10:52.957Z,11.38
2023-03-17T18:13:20.453Z,8.77
2023-03-17T18:15:47.366Z,11.52
2023-03-17T18:18:15.333Z,9.23
2023-03-17T18:20:42.304Z,9.88
2023-03-17T18:23:09.545Z,9.75
2023-03-17T18:25:37.251Z,10.32
2023-03-17T18:28:04.976Z,11.63
2023-03-17T18:30:34.791Z,10.93
2023-03-17T18:33:19.662Z,10.88
2023-03-17T18:35:50.798Z,9.60
2023-03-17T18:38:18.429Z,9.07
2023-03-17T18:40:45.874Z,9.45
2023-03-17T18:43:13.416Z,10.05
2023-03-17T18:45:40.427Z,9.10
2023-03-17T18:48:07.688Z,9.93
2023-03-17T18:50:34.661Z,8.85
2023-03-17T18:53:02.336Z,9.95
2023-03-17T18:55:29.312Z,10.20
2023-03-17T18:57:56.749Z,11.15
2023-03-17T19:00:25.893Z,12.25
2023-03-17T19:02:53.684Z,9.98
2023-03-17T19:05:21.161Z,18.95
2023-03-17T19:07:48.887Z,20.13
2023-03-17T19:10:16.659Z,15.00
2023-03-17T19:12:47.159Z,13.15
2023-03-17T19:15:15.172Z,12.13
2023-03-17T19:17:43.436Z,11.48
2023-03-17T19:20:12.360Z,13.95
2023-03-17T19:22:40.290Z,12.18
2023-03-17T19:25:09.049Z,15.27
2023-03-17T19:27:36.363Z,16.33
2023-03-17T19:30:03.920Z,20.95
2023-03-17T19:32:31.109Z,14.50
2023-03-17T19:34:58.542Z,15.52
2023-03-17T19:37:26.392Z,16.25
2023-03-17T19:39:53.546Z,15.02
2023-03-17T19:42:21.046Z,15.95
2023-03-17T19:44:47.984Z,15.00
2023-03-17T19:47:15.447Z,14.48
2023-03-17T19:49:42.424Z,14.15
2023-03-17T19:52:10.473Z,13.43
2023-03-17T19:54:41.653Z,12.90
2023-03-17T19:57:08.846Z,12.98
2023-03-17T19:59:35.861Z,13.80
2023-03-17T20:02:03.177Z,10.77
2023-03-17T20:04:31.029Z,10.88
2023-03-17T20:06:58.884Z,9.95
2023-03-17T20:09:27.149Z,8.75
2023-03-17T20:11:56.453Z,9.77
2023-03-17T20:14:24.302Z,8.98
2023-03-17T20:16:51.959Z,9.00
2023-03-17T20:19:19.361Z,8.88
2023-03-17T20:21:46.679Z,8.35
2023-03-17T20:24:14.745Z,7.97
2023-03-17T20:26:43.279Z,7.55
2023-03-17T20:29:14.173Z,7.90
2023-03-17T20:31:42.674Z,7.80
2023-03-17T20:34:10.647Z,8.63
2023-03-17T20:36:42.137Z,7.68
2023-03-17T20:39:13.259Z,7.70
2023-03-17T20:41:41.884Z,7.43
2023-03-17T20:44:09.130Z,7.13
2023-03-17T20:46:36.578Z,7.35
2023-03-17T20:49:05.508Z,6.93
2023-03-17T20:51:33.936Z,6.40
2023-03-17T20:54:04.506Z,6.88
2023-03-17T20:56:34.002Z,6.43
2023-03-17T20:59:04.834Z,6.25
2023-03-17T21:01:36.233Z,6.25
2023-03-17T21:04:09.775Z,6.30
2023-03-17T21:06:38.383Z,6.25
2023-03-17T21:09:05.964Z,6.40
2023-03-17T21:11:33.833Z,6.00
2023-03-17T21:14:03.612Z,6.05
2023-03-17T21:16:31.062Z,6.22
2023-03-17T21:18:58.822Z,7.00
2023-03-17T21:21:27.277Z,6.90
2023-03-17T21:23:55.487Z,6.53
2023-03-17T21:26:23.010Z,6.90
2023-03-17T21:28:50.414Z,6.75
2023-03-17T21:31:18.201Z,6.88
2023-03-17T21:33:48.321Z,6.65
2023-03-17T21:36:16.428Z,6.57
2023-03-17T21:38:43.628Z,6.78
2023-03-17T21:41:23.672Z,6.22
2023-03-17T21:43:50.796Z,6.85
2023-03-17T21:46:18.217Z,7.78
2023-03-17T21:48:45.256Z,8.18
2023-03-17T21:51:12.884Z,8.73
2023-03-17T21:53:39.887Z,9.57
2023-03-17T21:56:08.321Z,9.35
2023-03-17T21:58:35.647Z,8.88
2023-03-17T22:01:02.963Z,9.02
2023-03-17T22:03:30.204Z,9.43
2023-03-17T22:05:58.629Z,9.35
2023-03-17T22:08:26.273Z,9.25
2023-03-17T22:10:53.524Z,10.45
2023-03-17T22:13:20.608Z,10.13
2023-03-17T22:15:48.552Z,10.73
2023-03-17T22:18:15.789Z,10.13
2023-03-17T22:20:44.717Z,10.43
2023-03-17T22:23:12.828Z,10.43
2023-03-17T22:25:40.128Z,10.52
2023-03-17T22:28:07.093Z,10.50
2023-03-17T22:30:38.582Z,10.13
2023-03-17T22:33:07.495Z,9.50
2023-03-17T22:35:36.277Z,9.60
2023-03-17T22:38:04.431Z,10.07
2023-03-17T22:40:32.235Z,10.25
2023-03-17T22:42:59.407Z,9.77
2023-03-17T22:45:27.261Z,9.45
2023-03-17T22:47:55.381Z,9.20
2023-03-17T22:50:25.174Z,9.95
2023-03-17T22:52:52.527Z,9.32
2023-03-17T22:55:19.784Z,9.02
2023-03-17T22:57:47.187Z,8.73
2023-03-17T23:00:17.010Z,9.20
2023-03-17T23:02:46.437Z,8.65
2023-03-17T23:05:14.482Z,9.15
2023-03-17T23:07:50.273Z,9.15
2023-03-17T23:10:25.232Z,9.32
2023-03-17T23:12:52.430Z,9.10
2023-03-17T23:15:20.950Z,8.93
2023-03-17T23:17:48.171Z,9.38
2023-03-17T23:20:16.050Z,9.77
2023-03-17T23:22:43.373Z,8.73
2023-03-17T23:25:13.497Z,10.02
2023-03-17T23:27:41.321Z,9.65
2023-03-17T23:30:11.787Z,10.55
2023-03-17T23:32:40.715Z,9.63
2023-03-17T23:35:10.054Z,10.13
2023-03-17T23:37:37.298Z,10.35
2023-03-17T23:40:09.536Z,9.65
2023-03-17T23:42:36.968Z,10.30
2023-03-17T23:45:05.517Z,9.77
2023-03-17T23:47:32.834Z,10.00
2023-03-17T23:50:00.136Z,10.10
2023-03-17T23:52:27.112Z,9.73
2023-03-17T23:54:54.565Z,9.02
2023-03-17T23:57:21.687Z,8.43
2023-03-17T23:59:48.866Z,10.02
